Terminal Aerodrome Forecast
Issued by NWS State College, PA

Home | Current Version | Previous Version | Text Only | Print | Product List | Glossary On
Versions: 1 2 3 4 5 6 7 8 9 10 11 12 13 14 15 16 17 18 19 20 21 22 23 24 25 26 27 28 29
000
FTUS41 KCTP 231200 RRA
TAFMDT
TAF
KMDT 231200Z 2312/2412 05003KT 2SM -RA BR VCTS BKN004 OVC015CB
      TEMPO 2312/2314 1SM +SHRA BR OVC004
     FM231400 26015G30KT P6SM VCSH OVC050
     FM240000 27020KT P6SM SCT050
     FM240600 30010KT P6SM OVC050=

USA.gov is the U.S. government's official web portal to all federal, state and local government web resources and services.